sensor_id;sensor_type;location;lat;lon;timestamp;temperature;humidity
49777;DHT22;35673;51.482;7.436;2023-05-07T00:00:36;15.40;99.90
49777;DHT22;35673;51.482;7.436;2023-05-07T00:03:01;15.40;99.90
49777;DHT22;35673;51.482;7.436;2023-05-07T00:05:27;15.40;99.90
49777;DHT22;35673;51.482;7.436;2023-05-07T00:07:52;15.40;99.90
49777;DHT22;35673;51.482;7.436;2023-05-07T00:10:18;15.40;99.90
49777;DHT22;35673;51.482;7.436;2023-05-07T00:12:44;15.40;99.90
49777;DHT22;35673;51.482;7.436;2023-05-07T00:15:09;15.40;99.90
49777;DHT22;35673;51.482;7.436;2023-05-07T00:17:35;15.40;99.90
49777;DHT22;35673;51.482;7.436;2023-05-07T00:20:00;15.40;99.90
49777;DHT22;35673;51.482;7.436;2023-05-07T00:22:26;15.40;99.90
49777;DHT22;35673;51.482;7.436;2023-05-07T00:24:51;15.40;99.90
49777;DHT22;35673;51.482;7.436;2023-05-07T00:27:17;15.40;99.90
49777;DHT22;35673;51.482;7.436;2023-05-07T00:29:42;15.40;99.90
49777;DHT22;35673;51.482;7.436;2023-05-07T00:32:08;15.40;99.90
49777;DHT22;35673;51.482;7.436;2023-05-07T00:34:34;15.40;99.90
49777;DHT22;35673;51.482;7.436;2023-05-07T00:36:59;15.40;99.90
49777;DHT22;35673;51.482;7.436;2023-05-07T00:39:25;15.40;99.90
49777;DHT22;35673;51.482;7.436;2023-05-07T00:41:50;15.40;99.90
49777;DHT22;35673;51.482;7.436;2023-05-07T00:44:16;15.30;99.90
49777;DHT22;35673;51.482;7.436;2023-05-07T00:46:43;15.30;99.90
49777;DHT22;35673;51.482;7.436;2023-05-07T00:49:10;15.40;99.90
49777;DHT22;35673;51.482;7.436;2023-05-07T00:51:36;15.40;99.90
49777;DHT22;35673;51.482;7.436;2023-05-07T00:54:02;15.30;99.90
49777;DHT22;35673;51.482;7.436;2023-05-07T00:56:27;15.30;99.90
49777;DHT22;35673;51.482;7.436;2023-05-07T00:58:53;15.30;99.90
49777;DHT22;35673;51.482;7.436;2023-05-07T01:01:18;15.30;99.90
49777;DHT22;35673;51.482;7.436;2023-05-07T01:03:44;15.30;99.90
49777;DHT22;35673;51.482;7.436;2023-05-07T01:06:10;15.30;99.90
49777;DHT22;35673;51.482;7.436;2023-05-07T01:08:38;15.30;99.90
49777;DHT22;35673;51.482;7.436;2023-05-07T01:11:05;15.20;99.90
49777;DHT22;35673;51.482;7.436;2023-05-07T01:13:31;15.30;99.90
49777;DHT22;35673;51.482;7.436;2023-05-07T01:15:57;15.30;99.90
49777;DHT22;35673;51.482;7.436;2023-05-07T01:18:22;15.30;99.90
49777;DHT22;35673;51.482;7.436;2023-05-07T01:20:48;15.30;99.90
49777;DHT22;35673;51.482;7.436;2023-05-07T01:23:13;15.20;99.90
49777;DHT22;35673;51.482;7.436;2023-05-07T01:25:40;15.20;99.90
49777;DHT22;35673;51.482;7.436;2023-05-07T01:28:05;15.20;99.90
49777;DHT22;35673;51.482;7.436;2023-05-07T01:30:31;15.20;99.90
49777;DHT22;35673;51.482;7.436;2023-05-07T01:33:02;15.20;99.90
49777;DHT22;35673;51.482;7.436;2023-05-07T01:35:30;15.10;99.90
49777;DHT22;35673;51.482;7.436;2023-05-07T01:37:57;15.20;99.90
49777;DHT22;35673;51.482;7.436;2023-05-07T01:40:23;15.20;99.90
49777;DHT22;35673;51.482;7.436;2023-05-07T01:42:49;15.20;99.90
49777;DHT22;35673;51.482;7.436;2023-05-07T01:45:15;15.10;99.90
49777;DHT22;35673;51.482;7.436;2023-05-07T01:47:40;15.10;99.90
49777;DHT22;35673;51.482;7.436;2023-05-07T01:50:06;15.10;99.90
49777;DHT22;35673;51.482;7.436;2023-05-07T01:52:33;15.20;99.90
49777;DHT22;35673;51.482;7.436;2023-05-07T01:54:59;15.20;99.90
49777;DHT22;35673;51.482;7.436;2023-05-07T01:57:25;15.20;99.90
49777;DHT22;35673;51.482;7.436;2023-05-07T01:59:51;15.20;99.90
49777;DHT22;35673;51.482;7.436;2023-05-07T02:02:16;15.10;99.90
49777;DHT22;35673;51.482;7.436;2023-05-07T02:04:41;15.10;99.90
49777;DHT22;35673;51.482;7.436;2023-05-07T02:07:07;15.10;99.90
49777;DHT22;35673;51.482;7.436;2023-05-07T02:09:32;15.10;99.90
49777;DHT22;35673;51.482;7.436;2023-05-07T02:11:58;15.10;99.90
49777;DHT22;35673;51.482;7.436;2023-05-07T02:14:23;15.10;99.90
49777;DHT22;35673;51.482;7.436;2023-05-07T02:16:49;15.00;99.90
49777;DHT22;35673;51.482;7.436;2023-05-07T02:19:14;15.00;99.90
49777;DHT22;35673;51.482;7.436;2023-05-07T02:21:40;15.00;99.90
49777;DHT22;35673;51.482;7.436;2023-05-07T02:24:05;15.00;99.90
49777;DHT22;35673;51.482;7.436;2023-05-07T02:26:31;15.00;99.90
49777;DHT22;35673;51.482;7.436;2023-05-07T02:28:56;15.00;99.90
49777;DHT22;35673;51.482;7.436;2023-05-07T02:31:21;15.00;99.90
49777;DHT22;35673;51.482;7.436;2023-05-07T02:33:49;14.90;99.90
49777;DHT22;35673;51.482;7.436;2023-05-07T02:36:14;14.90;99.90
49777;DHT22;35673;51.482;7.436;2023-05-07T02:38:40;14.90;99.90
49777;DHT22;35673;51.482;7.436;2023-05-07T02:41:06;14.90;99.90
49777;DHT22;35673;51.482;7.436;2023-05-07T02:43:31;14.90;99.90
49777;DHT22;35673;51.482;7.436;2023-05-07T02:46:03;14.90;99.90
49777;DHT22;35673;51.482;7.436;2023-05-07T02:48:29;14.90;99.90
49777;DHT22;35673;51.482;7.436;2023-05-07T02:50:55;14.90;99.90
49777;DHT22;35673;51.482;7.436;2023-05-07T02:53:20;14.90;99.90
49777;DHT22;35673;51.482;7.436;2023-05-07T02:55:46;14.80;99.90
49777;DHT22;35673;51.482;7.436;2023-05-07T02:58:11;14.80;99.90
49777;DHT22;35673;51.482;7.436;2023-05-07T03:00:37;14.80;99.90
49777;DHT22;35673;51.482;7.436;2023-05-07T03:03:02;14.80;99.90
49777;DHT22;35673;51.482;7.436;2023-05-07T03:05:27;14.80;99.90
49777;DHT22;35673;51.482;7.436;2023-05-07T03:07:53;14.80;99.90
49777;DHT22;35673;51.482;7.436;2023-05-07T03:10:18;14.80;99.90
49777;DHT22;35673;51.482;7.436;2023-05-07T03:12:44;14.80;99.90
49777;DHT22;35673;51.482;7.436;2023-05-07T03:15:10;14.80;99.90
49777;DHT22;35673;51.482;7.436;2023-05-07T03:17:36;14.80;99.90
49777;DHT22;35673;51.482;7.436;2023-05-07T03:20:02;14.70;99.90
49777;DHT22;35673;51.482;7.436;2023-05-07T03:22:27;14.70;99.90
49777;DHT22;35673;51.482;7.436;2023-05-07T03:24:53;14.80;99.90
49777;DHT22;35673;51.482;7.436;2023-05-07T03:27:18;14.70;99.90
49777;DHT22;35673;51.482;7.436;2023-05-07T03:29:44;14.70;99.90
49777;DHT22;35673;51.482;7.436;2023-05-07T03:32:09;14.70;99.90
49777;DHT22;35673;51.482;7.436;2023-05-07T03:34:35;14.70;99.90
49777;DHT22;35673;51.482;7.436;2023-05-07T03:37:00;14.70;99.90
49777;DHT22;35673;51.482;7.436;2023-05-07T03:39:26;14.70;99.90
49777;DHT22;35673;51.482;7.436;2023-05-07T03:41:51;14.70;99.90
49777;DHT22;35673;51.482;7.436;2023-05-07T03:44:17;14.70;99.90
49777;DHT22;35673;51.482;7.436;2023-05-07T03:46:42;14.70;99.90
49777;DHT22;35673;51.482;7.436;2023-05-07T03:49:08;14.70;99.90
49777;DHT22;35673;51.482;7.436;2023-05-07T03:51:33;14.70;99.90
49777;DHT22;35673;51.482;7.436;2023-05-07T03:53:59;14.60;99.90
49777;DHT22;35673;51.482;7.436;2023-05-07T03:56:24;14.70;99.90
49777;DHT22;35673;51.482;7.436;2023-05-07T03:58:51;14.70;99.90
49777;DHT22;35673;51.482;7.436;2023-05-07T04:01:17;14.70;99.90
49777;DHT22;35673;51.482;7.436;2023-05-07T04:03:42;14.70;99.90
49777;DHT22;35673;51.482;7.436;2023-05-07T04:06:08;14.70;99.90
49777;DHT22;35673;51.482;7.436;2023-05-07T04:08:33;14.70;99.90
49777;DHT22;35673;51.482;7.436;2023-05-07T04:10:59;14.70;99.90
49777;DHT22;35673;51.482;7.436;2023-05-07T04:13:24;14.60;99.90
49777;DHT22;35673;51.482;7.436;2023-05-07T04:15:50;14.60;99.90
49777;DHT22;35673;51.482;7.436;2023-05-07T04:18:16;14.60;99.90
49777;DHT22;35673;51.482;7.436;2023-05-07T04:20:41;14.60;99.90
49777;DHT22;35673;51.482;7.436;2023-05-07T04:23:07;14.60;99.90
49777;DHT22;35673;51.482;7.436;2023-05-07T04:25:33;14.60;99.90
49777;DHT22;35673;51.482;7.436;2023-05-07T04:27:58;14.60;99.90
49777;DHT22;35673;51.482;7.436;2023-05-07T04:30:24;14.60;99.90
49777;DHT22;35673;51.482;7.436;2023-05-07T04:32:49;14.60;99.90
49777;DHT22;35673;51.482;7.436;2023-05-07T04:35:15;14.60;99.90
49777;DHT22;35673;51.482;7.436;2023-05-07T04:37:40;14.60;99.90
49777;DHT22;35673;51.482;7.436;2023-05-07T04:40:06;14.60;99.90
49777;DHT22;35673;51.482;7.436;2023-05-07T04:42:32;14.60;99.90
49777;DHT22;35673;51.482;7.436;2023-05-07T04:44:57;14.60;99.90
49777;DHT22;35673;51.482;7.436;2023-05-07T04:47:23;14.70;99.90
49777;DHT22;35673;51.482;7.436;2023-05-07T04:49:48;14.70;99.90
49777;DHT22;35673;51.482;7.436;2023-05-07T04:52:14;14.70;99.90
49777;DHT22;35673;51.482;7.436;2023-05-07T04:54:40;14.80;99.90
49777;DHT22;35673;51.482;7.436;2023-05-07T04:57:05;14.80;99.90
49777;DHT22;35673;51.482;7.436;2023-05-07T04:59:32;14.80;99.90
49777;DHT22;35673;51.482;7.436;2023-05-07T05:01:57;14.80;99.90
49777;DHT22;35673;51.482;7.436;2023-05-07T05:04:23;14.80;99.90
49777;DHT22;35673;51.482;7.436;2023-05-07T05:06:48;14.90;99.90
49777;DHT22;35673;51.482;7.436;2023-05-07T05:09:13;14.90;99.90
49777;DHT22;35673;51.482;7.436;2023-05-07T05:11:39;15.00;99.90
49777;DHT22;35673;51.482;7.436;2023-05-07T05:14:05;15.00;99.90
49777;DHT22;35673;51.482;7.436;2023-05-07T05:16:30;15.00;99.90
49777;DHT22;35673;51.482;7.436;2023-05-07T05:18:56;15.00;99.90
49777;DHT22;35673;51.482;7.436;2023-05-07T05:21:22;15.10;99.90
49777;DHT22;35673;51.482;7.436;2023-05-07T05:23:47;15.10;99.90
49777;DHT22;35673;51.482;7.436;2023-05-07T05:26:13;15.10;99.90
49777;DHT22;35673;51.482;7.436;2023-05-07T05:28:38;15.20;99.90
49777;DHT22;35673;51.482;7.436;2023-05-07T05:31:04;15.20;99.90
49777;DHT22;35673;51.482;7.436;2023-05-07T05:33:30;15.20;99.90
49777;DHT22;35673;51.482;7.436;2023-05-07T05:35:55;15.20;99.90
49777;DHT22;35673;51.482;7.436;2023-05-07T05:38:21;15.30;99.90
49777;DHT22;35673;51.482;7.436;2023-05-07T05:40:46;15.30;99.90
49777;DHT22;35673;51.482;7.436;2023-05-07T05:43:13;15.40;99.90
49777;DHT22;35673;51.482;7.436;2023-05-07T05:45:38;15.40;99.90
49777;DHT22;35673;51.482;7.436;2023-05-07T05:48:04;15.50;99.90
49777;DHT22;35673;51.482;7.436;2023-05-07T05:50:29;15.50;99.90
49777;DHT22;35673;51.482;7.436;2023-05-07T05:52:55;15.60;99.90
49777;DHT22;35673;51.482;7.436;2023-05-07T05:55:21;15.60;99.90
49777;DHT22;35673;51.482;7.436;2023-05-07T05:57:47;15.70;99.90
49777;DHT22;35673;51.482;7.436;2023-05-07T06:00:13;15.80;99.90
49777;DHT22;35673;51.482;7.436;2023-05-07T06:02:38;15.90;99.90
49777;DHT22;35673;51.482;7.436;2023-05-07T06:05:04;15.90;99.90
49777;DHT22;35673;51.482;7.436;2023-05-07T06:07:29;16.00;99.90
49777;DHT22;35673;51.482;7.436;2023-05-07T06:09:55;16.00;99.90
49777;DHT22;35673;51.482;7.436;2023-05-07T06:12:21;16.10;99.90
49777;DHT22;35673;51.482;7.436;2023-05-07T06:14:46;16.10;99.90
49777;DHT22;35673;51.482;7.436;2023-05-07T06:17:12;16.20;99.90
49777;DHT22;35673;51.482;7.436;2023-05-07T06:19:37;16.30;99.90
49777;DHT22;35673;51.482;7.436;2023-05-07T06:22:02;16.40;99.90
49777;DHT22;35673;51.482;7.436;2023-05-07T06:24:28;16.40;99.90
49777;DHT22;35673;51.482;7.436;2023-05-07T06:26:54;16.50;99.90
49777;DHT22;35673;51.482;7.436;2023-05-07T06:29:19;16.60;99.90
49777;DHT22;35673;51.482;7.436;2023-05-07T06:31:45;16.60;99.90
49777;DHT22;35673;51.482;7.436;2023-05-07T06:34:10;16.70;99.90
49777;DHT22;35673;51.482;7.436;2023-05-07T06:36:39;16.60;99.90
49777;DHT22;35673;51.482;7.436;2023-05-07T06:39:05;16.70;99.90
49777;DHT22;35673;51.482;7.436;2023-05-07T06:41:30;16.80;99.90
49777;DHT22;35673;51.482;7.436;2023-05-07T06:43:56;16.80;99.90
49777;DHT22;35673;51.482;7.436;2023-05-07T06:46:21;16.90;99.90
49777;DHT22;35673;51.482;7.436;2023-05-07T06:48:47;17.00;99.90
49777;DHT22;35673;51.482;7.436;2023-05-07T06:51:12;17.00;99.90
49777;DHT22;35673;51.482;7.436;2023-05-07T06:53:38;17.00;99.90
49777;DHT22;35673;51.482;7.436;2023-05-07T06:56:03;17.10;99.90
49777;DHT22;35673;51.482;7.436;2023-05-07T06:58:29;17.10;99.90
49777;DHT22;35673;51.482;7.436;2023-05-07T07:00:55;17.10;99.90
49777;DHT22;35673;51.482;7.436;2023-05-07T07:03:20;17.10;99.90
49777;DHT22;35673;51.482;7.436;2023-05-07T07:05:46;17.10;99.90
49777;DHT22;35673;51.482;7.436;2023-05-07T07:08:11;17.20;99.90
49777;DHT22;35673;51.482;7.436;2023-05-07T07:10:37;17.20;99.90
49777;DHT22;35673;51.482;7.436;2023-05-07T07:13:02;17.30;99.90
49777;DHT22;35673;51.482;7.436;2023-05-07T07:15:28;17.30;99.90
49777;DHT22;35673;51.482;7.436;2023-05-07T07:17:53;17.40;99.90
49777;DHT22;35673;51.482;7.436;2023-05-07T07:20:19;17.40;99.90
49777;DHT22;35673;51.482;7.436;2023-05-07T07:22:44;17.50;99.90
49777;DHT22;35673;51.482;7.436;2023-05-07T07:25:10;17.50;99.90
49777;DHT22;35673;51.482;7.436;2023-05-07T07:27:36;17.50;99.90
49777;DHT22;35673;51.482;7.436;2023-05-07T07:30:01;17.50;99.90
49777;DHT22;35673;51.482;7.436;2023-05-07T07:32:27;17.60;99.90
49777;DHT22;35673;51.482;7.436;2023-05-07T07:34:52;17.70;99.90
49777;DHT22;35673;51.482;7.436;2023-05-07T07:37:18;17.80;99.90
49777;DHT22;35673;51.482;7.436;2023-05-07T07:39:43;17.80;99.90
49777;DHT22;35673;51.482;7.436;2023-05-07T07:42:09;17.90;99.90
49777;DHT22;35673;51.482;7.436;2023-05-07T07:44:34;17.90;99.90
49777;DHT22;35673;51.482;7.436;2023-05-07T07:47:00;18.00;99.90
49777;DHT22;35673;51.482;7.436;2023-05-07T07:49:26;17.90;99.90
49777;DHT22;35673;51.482;7.436;2023-05-07T07:51:51;18.00;99.90
49777;DHT22;35673;51.482;7.436;2023-05-07T07:54:17;18.00;99.90
49777;DHT22;35673;51.482;7.436;2023-05-07T07:56:42;18.10;99.90
49777;DHT22;35673;51.482;7.436;2023-05-07T07:59:08;18.10;99.90
49777;DHT22;35673;51.482;7.436;2023-05-07T08:01:33;18.10;99.90
49777;DHT22;35673;51.482;7.436;2023-05-07T08:04:02;18.20;99.90
49777;DHT22;35673;51.482;7.436;2023-05-07T08:06:28;18.30;99.90
49777;DHT22;35673;51.482;7.436;2023-05-07T08:08:54;18.40;99.90
49777;DHT22;35673;51.482;7.436;2023-05-07T08:11:20;18.40;99.90
49777;DHT22;35673;51.482;7.436;2023-05-07T08:13:46;18.50;99.90
49777;DHT22;35673;51.482;7.436;2023-05-07T08:16:12;18.50;99.90
49777;DHT22;35673;51.482;7.436;2023-05-07T08:18:38;18.50;99.90
49777;DHT22;35673;51.482;7.436;2023-05-07T08:21:03;18.50;99.90
49777;DHT22;35673;51.482;7.436;2023-05-07T08:23:29;18.50;99.90
49777;DHT22;35673;51.482;7.436;2023-05-07T08:25:54;18.60;99.90
49777;DHT22;35673;51.482;7.436;2023-05-07T08:28:20;18.60;99.90
49777;DHT22;35673;51.482;7.436;2023-05-07T08:30:46;18.60;99.90
49777;DHT22;35673;51.482;7.436;2023-05-07T08:33:12;18.60;99.90
49777;DHT22;35673;51.482;7.436;2023-05-07T08:35:37;18.70;99.90
49777;DHT22;35673;51.482;7.436;2023-05-07T08:38:03;18.80;99.90
49777;DHT22;35673;51.482;7.436;2023-05-07T08:40:28;18.90;99.90
49777;DHT22;35673;51.482;7.436;2023-05-07T08:42:54;19.00;99.90
49777;DHT22;35673;51.482;7.436;2023-05-07T08:45:20;19.10;99.50
49777;DHT22;35673;51.482;7.436;2023-05-07T08:47:52;19.20;99.40
49777;DHT22;35673;51.482;7.436;2023-05-07T08:50:20;19.40;98.90
49777;DHT22;35673;51.482;7.436;2023-05-07T08:52:47;19.50;97.70
49777;DHT22;35673;51.482;7.436;2023-05-07T08:55:12;19.70;97.90
49777;DHT22;35673;51.482;7.436;2023-05-07T08:57:37;19.80;96.70
49777;DHT22;35673;51.482;7.436;2023-05-07T09:00:03;19.90;96.40
49777;DHT22;35673;51.482;7.436;2023-05-07T09:02:29;20.20;96.00
49777;DHT22;35673;51.482;7.436;2023-05-07T09:04:55;20.50;94.70
49777;DHT22;35673;51.482;7.436;2023-05-07T09:07:20;20.60;93.80
49777;DHT22;35673;51.482;7.436;2023-05-07T09:09:46;20.80;93.30
49777;DHT22;35673;51.482;7.436;2023-05-07T09:12:12;21.00;92.60
49777;DHT22;35673;51.482;7.436;2023-05-07T09:14:37;21.30;91.60
49777;DHT22;35673;51.482;7.436;2023-05-07T09:17:03;21.50;91.10
49777;DHT22;35673;51.482;7.436;2023-05-07T09:19:28;21.40;90.10
49777;DHT22;35673;51.482;7.436;2023-05-07T09:21:58;21.40;89.50
49777;DHT22;35673;51.482;7.436;2023-05-07T09:24:25;21.10;90.30
49777;DHT22;35673;51.482;7.436;2023-05-07T09:26:50;21.10;90.40
49777;DHT22;35673;51.482;7.436;2023-05-07T09:29:16;20.90;91.00
49777;DHT22;35673;51.482;7.436;2023-05-07T09:31:42;20.90;90.80
49777;DHT22;35673;51.482;7.436;2023-05-07T09:34:08;20.90;91.00
49777;DHT22;35673;51.482;7.436;2023-05-07T09:36:33;20.80;90.50
49777;DHT22;35673;51.482;7.436;2023-05-07T09:38:59;20.80;90.60
49777;DHT22;35673;51.482;7.436;2023-05-07T09:41:25;20.90;90.70
49777;DHT22;35673;51.482;7.436;2023-05-07T09:43:54;21.00;90.60
49777;DHT22;35673;51.482;7.436;2023-05-07T09:46:20;21.10;90.00
49777;DHT22;35673;51.482;7.436;2023-05-07T09:48:50;21.00;90.20
49777;DHT22;35673;51.482;7.436;2023-05-07T09:51:30;21.20;89.60
49777;DHT22;35673;51.482;7.436;2023-05-07T09:53:59;21.20;88.80
49777;DHT22;35673;51.482;7.436;2023-05-07T09:56:27;21.10;88.60
49777;DHT22;35673;51.482;7.436;2023-05-07T09:58:54;21.20;88.00
49777;DHT22;35673;51.482;7.436;2023-05-07T10:01:21;21.20;86.50
49777;DHT22;35673;51.482;7.436;2023-05-07T10:03:47;21.20;85.80
49777;DHT22;35673;51.482;7.436;2023-05-07T10:06:15;21.30;84.70
49777;DHT22;35673;51.482;7.436;2023-05-07T10:08:40;21.40;84.20
49777;DHT22;35673;51.482;7.436;2023-05-07T10:11:07;21.50;84.10
49777;DHT22;35673;51.482;7.436;2023-05-07T10:13:33;21.60;84.30
49777;DHT22;35673;51.482;7.436;2023-05-07T10:16:03;21.60;83.70
49777;DHT22;35673;51.482;7.436;2023-05-07T10:18:30;21.60;83.00
49777;DHT22;35673;51.482;7.436;2023-05-07T10:21:42;21.70;82.00
49777;DHT22;35673;51.482;7.436;2023-05-07T10:23:50;21.80;81.40
49777;DHT22;35673;51.482;7.436;2023-05-07T10:26:16;21.90;80.80
49777;DHT22;35673;51.482;7.436;2023-05-07T10:28:43;22.10;78.70
49777;DHT22;35673;51.482;7.436;2023-05-07T10:33:45;22.10;77.60
49777;DHT22;35673;51.482;7.436;2023-05-07T10:36:11;22.20;77.20
49777;DHT22;35673;51.482;7.436;2023-05-07T10:38:36;22.40;76.50
49777;DHT22;35673;51.482;7.436;2023-05-07T10:41:02;22.40;76.20
49777;DHT22;35673;51.482;7.436;2023-05-07T10:43:40;22.50;75.80
49777;DHT22;35673;51.482;7.436;2023-05-07T10:46:17;22.60;75.10
49777;DHT22;35673;51.482;7.436;2023-05-07T10:49:06;22.60;76.00
49777;DHT22;35673;51.482;7.436;2023-05-07T10:51:32;22.60;75.10
49777;DHT22;35673;51.482;7.436;2023-05-07T10:56:41;22.70;73.00
49777;DHT22;35673;51.482;7.436;2023-05-07T11:01:58;22.80;73.60
49777;DHT22;35673;51.482;7.436;2023-05-07T11:04:24;22.70;74.10
49777;DHT22;35673;51.482;7.436;2023-05-07T11:12:16;22.80;74.60
49777;DHT22;35673;51.482;7.436;2023-05-07T11:17:08;22.80;74.40
49777;DHT22;35673;51.482;7.436;2023-05-07T11:24:59;23.00;75.30
49777;DHT22;35673;51.482;7.436;2023-05-07T11:27:25;23.00;75.30
49777;DHT22;35673;51.482;7.436;2023-05-07T11:29:51;22.90;74.80
49777;DHT22;35673;51.482;7.436;2023-05-07T11:32:22;22.80;75.20
49777;DHT22;35673;51.482;7.436;2023-05-07T11:34:47;22.70;75.30
49777;DHT22;35673;51.482;7.436;2023-05-07T11:37:17;22.60;75.20
49777;DHT22;35673;51.482;7.436;2023-05-07T11:39:42;22.60;75.60
49777;DHT22;35673;51.482;7.436;2023-05-07T11:42:21;22.70;75.70
49777;DHT22;35673;51.482;7.436;2023-05-07T11:44:50;22.80;75.30
49777;DHT22;35673;51.482;7.436;2023-05-07T11:47:18;22.90;75.10
49777;DHT22;35673;51.482;7.436;2023-05-07T11:49:46;23.30;75.00
49777;DHT22;35673;51.482;7.436;2023-05-07T11:52:13;23.70;74.30
49777;DHT22;35673;51.482;7.436;2023-05-07T11:54:38;23.90;73.10
49777;DHT22;35673;51.482;7.436;2023-05-07T11:57:04;24.00;72.60
49777;DHT22;35673;51.482;7.436;2023-05-07T11:59:29;24.60;72.20
49777;DHT22;35673;51.482;7.436;2023-05-07T12:01:58;24.80;70.30
49777;DHT22;35673;51.482;7.436;2023-05-07T12:04:24;24.30;71.20
49777;DHT22;35673;51.482;7.436;2023-05-07T12:06:53;23.90;70.90
49777;DHT22;35673;51.482;7.436;2023-05-07T12:09:19;23.60;71.00
49777;DHT22;35673;51.482;7.436;2023-05-07T12:11:45;23.40;71.40
49777;DHT22;35673;51.482;7.436;2023-05-07T12:14:11;23.20;72.20
49777;DHT22;35673;51.482;7.436;2023-05-07T12:16:37;23.20;72.60
49777;DHT22;35673;51.482;7.436;2023-05-07T12:19:04;23.10;72.10
49777;DHT22;35673;51.482;7.436;2023-05-07T12:21:31;23.10;72.10
49777;DHT22;35673;51.482;7.436;2023-05-07T12:23:57;23.00;72.40
49777;DHT22;35673;51.482;7.436;2023-05-07T12:26:23;23.00;72.30
49777;DHT22;35673;51.482;7.436;2023-05-07T12:28:49;22.90;72.50
49777;DHT22;35673;51.482;7.436;2023-05-07T12:31:28;22.90;73.10
49777;DHT22;35673;51.482;7.436;2023-05-07T12:33:53;22.80;73.20
49777;DHT22;35673;51.482;7.436;2023-05-07T12:36:19;22.80;73.20
49777;DHT22;35673;51.482;7.436;2023-05-07T12:38:46;22.70;73.30
49777;DHT22;35673;51.482;7.436;2023-05-07T12:41:15;22.80;73.70
49777;DHT22;35673;51.482;7.436;2023-05-07T12:43:51;22.80;73.80
49777;DHT22;35673;51.482;7.436;2023-05-07T12:46:21;22.80;73.60
49777;DHT22;35673;51.482;7.436;2023-05-07T12:48:48;22.90;73.80
49777;DHT22;35673;51.482;7.436;2023-05-07T12:51:14;23.20;71.80
49777;DHT22;35673;51.482;7.436;2023-05-07T12:53:41;23.30;71.20
49777;DHT22;35673;51.482;7.436;2023-05-07T12:56:07;23.30;70.60
49777;DHT22;35673;51.482;7.436;2023-05-07T12:58:33;23.40;70.30
49777;DHT22;35673;51.482;7.436;2023-05-07T13:01:00;23.30;70.40
49777;DHT22;35673;51.482;7.436;2023-05-07T13:03:29;23.20;70.40
49777;DHT22;35673;51.482;7.436;2023-05-07T13:05:57;23.10;71.00
49777;DHT22;35673;51.482;7.436;2023-05-07T13:08:44;23.00;70.40
49777;DHT22;35673;51.482;7.436;2023-05-07T13:11:09;22.90;70.80
49777;DHT22;35673;51.482;7.436;2023-05-07T13:13:36;22.90;71.10
49777;DHT22;35673;51.482;7.436;2023-05-07T13:16:02;22.80;71.20
49777;DHT22;35673;51.482;7.436;2023-05-07T13:18:31;22.60;72.00
49777;DHT22;35673;51.482;7.436;2023-05-07T13:20:57;22.50;71.90
49777;DHT22;35673;51.482;7.436;2023-05-07T13:23:22;22.40;72.30
49777;DHT22;35673;51.482;7.436;2023-05-07T13:25:48;22.20;72.10
49777;DHT22;35673;51.482;7.436;2023-05-07T13:28:13;22.10;72.70
49777;DHT22;35673;51.482;7.436;2023-05-07T13:30:39;22.00;73.30
49777;DHT22;35673;51.482;7.436;2023-05-07T13:33:06;22.00;73.50
49777;DHT22;35673;51.482;7.436;2023-05-07T13:35:31;21.90;73.90
49777;DHT22;35673;51.482;7.436;2023-05-07T13:37:56;21.80;74.00
49777;DHT22;35673;51.482;7.436;2023-05-07T13:40:22;21.70;73.90
49777;DHT22;35673;51.482;7.436;2023-05-07T13:42:48;21.60;74.00
49777;DHT22;35673;51.482;7.436;2023-05-07T13:45:14;21.60;74.30
49777;DHT22;35673;51.482;7.436;2023-05-07T13:47:42;21.60;74.60
49777;DHT22;35673;51.482;7.436;2023-05-07T13:50:08;21.60;75.00
49777;DHT22;35673;51.482;7.436;2023-05-07T13:52:34;21.60;75.00
49777;DHT22;35673;51.482;7.436;2023-05-07T13:54:59;21.50;75.20
49777;DHT22;35673;51.482;7.436;2023-05-07T13:57:25;21.50;75.40
49777;DHT22;35673;51.482;7.436;2023-05-07T13:59:50;21.40;75.50
49777;DHT22;35673;51.482;7.436;2023-05-07T14:02:16;21.40;75.70
49777;DHT22;35673;51.482;7.436;2023-05-07T14:04:41;21.40;76.00
49777;DHT22;35673;51.482;7.436;2023-05-07T14:07:07;21.40;76.30
49777;DHT22;35673;51.482;7.436;2023-05-07T14:09:33;21.40;76.50
49777;DHT22;35673;51.482;7.436;2023-05-07T14:11:58;21.40;76.40
49777;DHT22;35673;51.482;7.436;2023-05-07T14:14:24;21.30;76.20
49777;DHT22;35673;51.482;7.436;2023-05-07T14:16:49;21.30;76.40
49777;DHT22;35673;51.482;7.436;2023-05-07T14:19:15;21.30;76.30
49777;DHT22;35673;51.482;7.436;2023-05-07T14:21:40;21.20;76.80
49777;DHT22;35673;51.482;7.436;2023-05-07T14:24:06;21.10;77.10
49777;DHT22;35673;51.482;7.436;2023-05-07T14:26:32;21.10;77.40
49777;DHT22;35673;51.482;7.436;2023-05-07T14:28:58;21.10;77.50
49777;DHT22;35673;51.482;7.436;2023-05-07T14:31:23;21.10;77.60
49777;DHT22;35673;51.482;7.436;2023-05-07T14:33:49;21.20;78.00
49777;DHT22;35673;51.482;7.436;2023-05-07T14:36:18;21.20;78.10
49777;DHT22;35673;51.482;7.436;2023-05-07T14:38:45;21.20;78.60
49777;DHT22;35673;51.482;7.436;2023-05-07T14:41:11;21.20;80.10
49777;DHT22;35673;51.482;7.436;2023-05-07T14:43:36;21.20;79.80
49777;DHT22;35673;51.482;7.436;2023-05-07T14:46:02;21.10;81.00
49777;DHT22;35673;51.482;7.436;2023-05-07T14:48:27;21.10;81.30
49777;DHT22;35673;51.482;7.436;2023-05-07T14:50:53;21.10;81.70
49777;DHT22;35673;51.482;7.436;2023-05-07T14:53:18;21.10;82.60
49777;DHT22;35673;51.482;7.436;2023-05-07T14:55:43;21.10;82.00
49777;DHT22;35673;51.482;7.436;2023-05-07T14:58:10;21.00;83.40
49777;DHT22;35673;51.482;7.436;2023-05-07T15:00:35;21.00;83.50
49777;DHT22;35673;51.482;7.436;2023-05-07T15:03:07;20.90;84.80
49777;DHT22;35673;51.482;7.436;2023-05-07T15:05:33;20.90;85.80
49777;DHT22;35673;51.482;7.436;2023-05-07T15:07:59;20.80;86.40
49777;DHT22;35673;51.482;7.436;2023-05-07T15:10:24;20.70;86.30
49777;DHT22;35673;51.482;7.436;2023-05-07T15:12:50;20.70;86.60
49777;DHT22;35673;51.482;7.436;2023-05-07T15:15:15;20.60;87.50
49777;DHT22;35673;51.482;7.436;2023-05-07T15:17:41;20.60;88.00
49777;DHT22;35673;51.482;7.436;2023-05-07T15:20:06;20.50;87.40
49777;DHT22;35673;51.482;7.436;2023-05-07T15:22:32;20.40;87.70
49777;DHT22;35673;51.482;7.436;2023-05-07T15:24:57;20.50;88.30
49777;DHT22;35673;51.482;7.436;2023-05-07T15:27:24;20.40;87.00
49777;DHT22;35673;51.482;7.436;2023-05-07T15:29:49;20.40;87.90
49777;DHT22;35673;51.482;7.436;2023-05-07T15:32:15;20.30;88.10
49777;DHT22;35673;51.482;7.436;2023-05-07T15:34:40;20.30;88.60
49777;DHT22;35673;51.482;7.436;2023-05-07T15:37:06;20.30;89.50
49777;DHT22;35673;51.482;7.436;2023-05-07T15:39:31;20.30;89.50
49777;DHT22;35673;51.482;7.436;2023-05-07T15:41:57;20.30;90.00
49777;DHT22;35673;51.482;7.436;2023-05-07T15:44:22;20.30;90.00